Terminal Aerodrome Forecast
Issued by NWS

Home | Current Version | Previous Version | Text Only | Print | Product List | Glossary On
Versions: 1 2 3 4 5 6 7 8 9 10 11 12 13 14 15 16 17 18 19 20 21 22 23 24 25 26 27 28
000
FTUS44 KLIX 011120
TAFHDC
TAF
KHDC 011120Z 0112/0212 00000KT P6SM OVC014
     FM011300 15006KT P6SM +TSRA OVC010CB
     FM011900 16009KT P6SM +SHRA OVC045
     FM020000 16006KT P6SM OVC045
     FM020900 00000KT P6SM BKN003
     FM021100 VRB03KT P6SM BKN008=

USA.gov is the U.S. government's official web portal to all federal, state and local government web resources and services.